Time;durP1;ratioP1;P1;durP2;ratioP2;P2;SDS_P1;SDS_P2;PMS_P1;PMS_P2;Temp;Humidity;BMP_temperature;BMP_pressure;BME280_temperature;BME280_humidity;BME280_pressure;Samples;Min_cycle;Max_cycle;Signal;HPM_P1;HPM_P2
2023/01/19 05:22:32;;;;;;;4.05;2.20;;;;;;;0.10;100.00;99347.47;5088698;28;20358;-67
2023/01/19 05:24:57;;;;;;;6.55;3.60;;;;;;;0.09;100.00;99351.91;5104432;28;20032;-66
2023/01/19 05:27:22;;;;;;;7.30;3.67;;;;;;;0.12;100.00;99353.41;5088424;28;20176;-67
2023/01/19 05:29:48;;;;;;;7.30;3.65;;;;;;;0.09;100.00;99351.91;5088783;28;20101;-67
2023/01/19 05:34:45;;;;;;;5.55;3.70;;;;;;;0.13;97.91;99353.31;5047055;28;20050;-62
2023/01/19 05:37:10;;;;;;;5.97;3.05;;;;;;;0.11;97.37;99354.38;5048237;28;20144;-64
2023/01/19 05:39:36;;;;;;;5.30;3.17;;;;;;;0.09;97.18;99353.69;5048468;28;20041;-62
2023/01/19 05:42:01;;;;;;;3.88;2.80;;;;;;;0.12;97.56;99356.03;5048459;28;20115;-62
2023/01/19 05:44:26;;;;;;;8.25;3.88;;;;;;;0.14;98.04;99354.97;5048281;28;20473;-60
2023/01/19 05:46:52;;;;;;;6.00;2.70;;;;;;;0.13;98.52;99353.31;5047067;28;20052;-67
2023/01/19 05:49:17;;;;;;;6.78;3.75;;;;;;;0.15;98.02;99348.75;5048296;28;20041;-62
2023/01/19 05:51:44;;;;;;;4.65;3.45;;;;;;;0.18;97.14;99358.97;5048168;28;20075;-65
2023/01/19 05:54:12;;;;;;;7.47;3.20;;;;;;;0.17;98.28;99349.44;5048030;28;20041;-64
2023/01/19 05:56:38;;;;;;;6.15;3.22;;;;;;;0.19;96.54;99362.41;5048092;28;20044;-63
2023/01/19 05:59:04;;;;;;;4.45;2.63;;;;;;;0.17;95.72;99364.34;5047740;28;20099;-64
2023/01/19 06:01:30;;;;;;;5.80;2.90;;;;;;;0.15;96.29;99361.84;5048032;28;20039;-64
2023/01/19 06:03:56;;;;;;;7.20;4.18;;;;;;;0.12;96.82;99359.47;5063236;28;20140;-63
2023/01/19 06:06:21;;;;;;;5.25;2.83;;;;;;;0.05;96.63;99354.88;5048000;28;20037;-65
2023/01/19 06:08:47;;;;;;;5.88;3.10;;;;;;;0.06;96.61;99357.38;5047748;28;20041;-65
2023/01/19 06:11:12;;;;;;;6.28;2.90;;;;;;;0.02;96.80;99363.84;5063139;28;20188;-64
2023/01/19 06:13:38;;;;;;;5.03;3.10;;;;;;;-0.04;96.94;99367.78;5046627;28;20041;-64
2023/01/19 06:16:05;;;;;;;4.13;2.25;;;;;;;-0.03;97.19;99363.38;5047760;28;20049;-64
2023/01/19 06:18:30;;;;;;;5.25;3.08;;;;;;;-0.04;97.16;99372.19;5047733;28;20052;-62
2023/01/19 06:20:59;;;;;;;4.47;3.40;;;;;;;-0.03;96.69;99366.00;5046524;28;20037;-64
2023/01/19 06:23:25;;;;;;;3.78;2.45;;;;;;;-0.03;96.65;99368.63;5047706;28;20387;-65
2023/01/19 06:25:51;;;;;;;7.47;2.63;;;;;;;-0.04;97.23;99377.44;5047686;28;20090;-64
2023/01/19 06:28:17;;;;;;;3.42;2.67;;;;;;;-0.06;97.67;99384.59;5046054;28;20037;-63
2023/01/19 06:30:47;;;;;;;3.22;2.53;;;;;;;-0.08;98.09;99382.09;5046173;28;20037;-64
2023/01/19 06:33:12;;;;;;;4.13;2.88;;;;;;;-0.04;97.79;99382.69;5052782;28;20046;-62
2023/01/19 06:35:37;;;;;;;5.55;3.22;;;;;;;-0.06;97.56;99384.59;5034233;28;20406;-68
2023/01/19 06:38:03;;;;;;;4.57;3.08;;;;;;;-0.02;98.37;99388.59;5033837;28;20034;-62
2023/01/19 06:40:28;;;;;;;3.08;1.98;;;;;;;0.01;98.64;99383.13;5033946;28;20040;-63
2023/01/19 06:42:54;;;;;;;3.58;2.83;;;;;;;0.00;97.40;99389.34;5034073;28;20137;-64
2023/01/19 06:45:19;;;;;;;3.88;3.15;;;;;;;0.06;98.04;99394.03;5032581;28;20049;-62
2023/01/19 06:47:46;;;;;;;4.72;3.10;;;;;;;0.07;99.07;99394.91;5048870;28;20034;-62
2023/01/19 06:50:12;;;;;;;6.43;3.05;;;;;;;0.09;98.08;99391.19;5033911;28;20041;-58
2023/01/19 06:52:41;;;;;;;2.95;2.28;;;;;;;0.17;97.36;99391.38;5033673;28;20517;-56
2023/01/19 06:55:09;;;;;;;3.15;2.53;;;;;;;0.26;96.98;99395.00;5033792;28;20072;-63
2023/01/19 06:57:37;;;;;;;4.28;2.83;;;;;;;0.29;96.75;99401.78;5033608;28;20441;-64
2023/01/19 07:00:06;;;;;;;4.53;3.15;;;;;;;0.33;98.04;99403.19;5033687;28;20049;-64
2023/01/19 07:02:35;;;;;;;7.03;3.53;;;;;;;0.33;95.80;99400.56;5033585;28;20037;-64
2023/01/19 07:05:01;;;;;;;5.32;3.67;;;;;;;0.35;96.61;99403.91;5033666;28;20427;-64
2023/01/19 07:07:26;;;;;;;4.93;2.75;;;;;;;0.39;95.97;99400.91;5033390;28;20072;-64
2023/01/19 07:09:52;;;;;;;4.78;2.78;;;;;;;0.43;94.38;99404.06;5033383;28;20065;-65
2023/01/19 07:12:17;;;;;;;4.35;2.78;;;;;;;0.42;94.58;99411.09;5033343;28;20033;-64
2023/01/19 07:14:43;;;;;;;4.35;2.47;;;;;;;0.44;95.15;99413.59;5033409;28;20040;-63
2023/01/19 07:17:09;;;;;;;3.10;2.38;;;;;;;0.45;95.27;99412.63;5033394;28;20637;-63
2023/01/19 07:19:35;;;;;;;3.42;2.17;;;;;;;0.43;95.39;99411.94;5033394;28;20041;-64
2023/01/19 07:22:01;;;;;;;3.60;2.70;;;;;;;0.41;95.46;99416.47;5033331;28;20037;-64
2023/01/19 07:24:29;;;;;;;3.30;3.00;;;;;;;0.45;94.81;99415.25;5033199;28;20055;-64
2023/01/19 07:26:55;;;;;;;6.18;2.40;;;;;;;0.47;95.42;99418.59;5033305;28;20037;-64
2023/01/19 07:29:20;;;;;;;4.88;3.08;;;;;;;0.48;96.25;99415.84;5033713;28;20064;-64
2023/01/19 07:31:47;;;;;;;4.35;2.42;;;;;;;0.51;94.64;99419.97;5033640;28;20466;-64
2023/01/19 07:34:13;;;;;;;2.17;1.70;;;;;;;0.52;95.45;99421.63;5033661;28;20037;-65
2023/01/19 07:36:38;;;;;;;4.18;2.53;;;;;;;0.54;95.50;99420.56;5033619;28;20357;-64
2023/01/19 07:39:04;;;;;;;3.90;2.47;;;;;;;0.52;94.54;99421.63;5033399;28;20038;-64
2023/01/19 07:41:29;;;;;;;4.30;2.78;;;;;;;0.51;95.56;99419.97;5033439;28;20068;-64
2023/01/19 07:43:55;;;;;;;5.38;3.28;;;;;;;0.58;93.97;99422.91;5032337;28;20492;-64
2023/01/19 07:46:20;;;;;;;5.47;2.95;;;;;;;0.58;94.78;99425.53;5033066;28;20494;-64
2023/01/19 07:48:46;;;;;;;5.55;2.58;;;;;;;0.63;93.75;99429.44;5033040;28;20044;-64
2023/01/19 07:51:16;;;;;;;4.63;2.55;;;;;;;0.62;93.14;99424.31;5031855;28;20037;-65
2023/01/19 07:53:42;;;;;;;3.53;2.67;;;;;;;0.69;93.83;99422.84;5032858;28;20116;-65
2023/01/19 07:56:08;;;;;;;3.72;2.65;;;;;;;0.68;93.39;99422.00;5032747;28;20041;-63
2023/01/19 07:58:33;;;;;;;3.80;2.22;;;;;;;0.71;93.30;99426.97;5033022;28;20033;-63
2023/01/19 08:00:59;;;;;;;3.58;2.03;;;;;;;0.76;92.72;99429.22;5032730;28;20502;-64
2023/01/19 08:03:24;;;;;;;4.30;2.42;;;;;;;0.84;92.51;99437.25;5032630;28;20045;-64
2023/01/19 08:05:51;;;;;;;2.95;2.15;;;;;;;0.86;93.27;99443.22;5032441;28;20045;-64
2023/01/19 08:08:17;;;;;;;2.47;2.22;;;;;;;0.88;93.15;99443.91;5032406;28;20449;-64
2023/01/19 08:10:43;;;;;;;3.13;2.35;;;;;;;0.91;93.04;99448.03;5030846;28;20513;-64
2023/01/19 08:13:08;;;;;;;2.17;1.63;;;;;;;0.90;91.90;99441.97;5032649;28;20033;-62
2023/01/19 08:15:34;;;;;;;2.97;1.63;;;;;;;0.97;90.84;99443.09;5032515;28;20092;-63
2023/01/19 08:18:01;;;;;;;2.47;2.28;;;;;;;0.96;91.32;99451.94;5031151;28;20038;-64
2023/01/19 08:20:28;;;;;;;4.22;2.22;;;;;;;0.94;91.52;99446.00;5032614;28;20407;-62
2023/01/19 08:23:01;;;;;;;5.03;2.40;;;;;;;1.04;91.24;99446.91;5032223;28;20055;-64
2023/01/19 08:25:34;;;;;;;9.15;2.70;;;;;;;1.03;91.33;99447.81;5030859;28;20474;-63
2023/01/19 08:28:01;;;;;;;4.40;1.90;;;;;;;1.07;91.54;99448.41;5032044;28;20041;-63
2023/01/19 08:30:26;;;;;;;3.92;2.55;;;;;;;1.11;90.37;99451.59;5031952;28;20486;-64
2023/01/19 08:33:02;;;;;;;2.33;1.85;;;;;;;1.10;89.64;99445.50;5031844;28;20041;-63
2023/01/19 08:35:33;;;;;;;3.80;2.30;;;;;;;1.15;89.21;99451.19;5032030;28;20045;-64
2023/01/19 08:38:00;;;;;;;3.67;2.17;;;;;;;1.15;89.64;99459.06;5031661;28;20044;-63
2023/01/19 08:40:32;;;;;;;4.40;2.43;;;;;;;1.23;89.57;99448.72;5031916;28;20091;-65
2023/01/19 08:43:09;;;;;;;3.90;2.90;;;;;;;1.27;91.10;99455.38;5031936;28;20290;-64
2023/01/19 08:45:36;;;;;;;2.85;2.20;;;;;;;1.27;90.79;99450.13;5031878;28;20045;-64
2023/01/19 08:48:03;;;;;;;2.87;2.43;;;;;;;1.33;89.49;99460.09;5031664;28;20041;-64
2023/01/19 08:50:30;;;;;;;2.30;1.95;;;;;;;1.37;89.92;99465.94;5031558;28;20326;-64
2023/01/19 08:53:01;;;;;;;3.67;2.38;;;;;;;1.39;89.15;99461.38;5031777;28;20072;-64
2023/01/19 08:55:28;;;;;;;2.47;2.00;;;;;;;1.42;90.38;99457.63;5031595;28;20395;-64
2023/01/19 08:58:02;;;;;;;3.93;2.57;;;;;;;1.47;89.86;99458.91;5031639;28;20041;-64
2023/01/19 09:00:30;;;;;;;5.60;2.63;;;;;;;1.53;88.32;99460.97;5030521;28;20564;-64
2023/01/19 09:02:56;;;;;;;4.97;2.70;;;;;;;1.60;88.45;99471.78;5031668;28;20513;-64
2023/01/19 09:05:21;;;;;;;3.45;2.13;;;;;;;1.65;88.22;99466.13;5031649;28;20029;-64
2023/01/19 09:07:47;;;;;;;3.40;2.15;;;;;;;1.66;87.40;99463.38;5031442;28;20036;-64
2023/01/19 09:10:13;;;;;;;4.43;2.25;;;;;;;1.74;88.57;99470.56;5031521;28;20368;-65
2023/01/19 09:12:39;;;;;;;4.95;3.00;;;;;;;1.74;87.21;99467.94;5031639;28;20475;-64
2023/01/19 09:15:05;;;;;;;3.28;1.70;;;;;;;1.71;87.79;99458.53;5031696;28;20049;-65
2023/01/19 09:17:31;;;;;;;3.22;2.15;;;;;;;1.72;87.84;99465.44;5031729;28;20119;-65
2023/01/19 09:19:57;;;;;;;4.30;2.53;;;;;;;1.74;88.19;99455.63;5031538;28;20046;-65
2023/01/19 09:22:22;;;;;;;8.13;1.92;;;;;;;1.75;87.39;99467.78;5031426;28;20044;-65
2023/01/19 09:24:48;;;;;;;3.88;2.35;;;;;;;1.80;86.90;99468.22;5031440;28;20041;-62
2023/01/19 09:27:13;;;;;;;3.75;1.98;;;;;;;1.88;86.91;99463.09;5031431;28;20068;-64
2023/01/19 09:29:39;;;;;;;3.42;2.33;;;;;;;1.90;86.88;99463.81;5031409;28;20042;-66
2023/01/19 09:32:04;;;;;;;2.63;2.30;;;;;;;2.03;86.47;99473.22;5030128;28;20099;-65
2023/01/19 09:34:30;;;;;;;4.05;2.67;;;;;;;2.07;84.61;99480.69;5031175;28;20405;-64
2023/01/19 09:36:55;;;;;;;3.00;2.10;;;;;;;2.14;84.86;99470.44;5030029;28;20419;-66
2023/01/19 09:39:21;;;;;;;3.20;2.28;;;;;;;2.18;84.96;99471.84;5031247;28;20067;-66
2023/01/19 09:41:54;;;;;;;2.92;1.80;;;;;;;2.31;84.17;99464.50;5031409;28;20486;-66
2023/01/19 09:44:28;;;;;;;12.00;2.38;;;;;;;2.59;84.11;99468.06;5031312;28;20051;-66
2023/01/19 09:46:53;;;;;;;3.60;2.13;;;;;;;2.87;82.08;99466.38;5031248;28;20487;-66
2023/01/19 09:49:29;;;;;;;3.67;2.05;;;;;;;2.78;78.89;99472.47;5031485;28;20033;-65
2023/01/19 09:51:55;;;;;;;4.95;2.42;;;;;;;2.66;79.75;99466.53;5029944;28;20033;-65
2023/01/19 09:54:40;;;;;;;4.47;2.05;;;;;;;2.56;81.31;99478.88;5029787;28;20068;-64
2023/01/19 09:57:12;;;;;;;2.22;1.90;;;;;;;2.50;81.98;99474.19;5031185;28;20038;-64
2023/01/19 09:59:38;;;;;;;2.65;2.00;;;;;;;2.48;81.47;99473.50;5031492;28;20372;-65
2023/01/19 10:02:27;;;;;;;3.67;2.20;;;;;;;2.32;81.68;99478.47;5031329;28;20021;-65
2023/01/19 10:05:01;;;;;;;2.83;1.88;;;;;;;2.29;83.01;99479.59;5031186;28;20044;-65
2023/01/19 10:08:07;;;;;;;3.55;2.53;;;;;;;2.16;84.68;99479.06;5031340;28;20037;-65
2023/01/19 10:10:34;;;;;;;3.70;2.28;;;;;;;2.07;83.69;99475.44;5034994;28;20112;-65
2023/01/19 10:13:14;;;;;;;3.13;2.05;;;;;;;2.03;83.91;99473.22;5034903;28;20125;-65
2023/01/19 10:15:57;;;;;;;2.83;2.20;;;;;;;2.01;84.79;99483.03;5034821;28;20042;-65
2023/01/19 10:18:30;;;;;;;3.15;2.00;;;;;;;1.95;86.04;99475.69;5034478;28;20033;-65
2023/01/19 10:21:34;;;;;;;4.15;2.53;;;;;;;1.99;86.66;99488.44;5034796;28;20475;-65
2023/01/19 10:24:12;;;;;;;2.00;1.77;;;;;;;1.87;88.69;99489.50;5034393;28;20548;-64
2023/01/19 10:26:42;;;;;;;;;;;;;;;1.81;90.17;99490.88;5035077;28;20034;-64
2023/01/19 10:29:17;;;;;;;2.67;1.80;;;;;;;1.78;89.92;99498.22;5034208;28;20002;-65
2023/01/19 10:31:44;;;;;;;2.58;2.08;;;;;;;1.67;91.67;99493.06;5034181;28;20094;-65
2023/01/19 10:34:17;;;;;;;3.47;2.25;;;;;;;1.55;94.38;99497.59;5034260;28;20128;-65
2023/01/19 10:36:45;;;;;;;3.03;2.22;;;;;;;1.45;97.49;99502.00;5034364;28;20080;-64
2023/01/19 10:39:14;;;;;;;3.83;2.22;;;;;;;1.46;99.36;99498.41;5034061;28;20116;-65
2023/01/19 10:41:41;;;;;;;2.47;1.98;;;;;;;1.36;100.00;99496.56;5034406;28;20409;-64
2023/01/19 10:44:09;;;;;;;3.17;2.88;;;;;;;1.41;99.72;99497.97;5034311;28;20040;-64
2023/01/19 10:46:44;;;;;;;3.45;1.85;;;;;;;1.47;99.78;99500.88;5034066;28;20112;-64
2023/01/19 10:49:27;;;;;;;3.40;2.65;;;;;;;1.44;99.02;99502.97;5033693;28;20072;-64
2023/01/19 10:51:54;;;;;;;2.10;1.92;;;;;;;1.42;99.93;99500.44;5032968;28;20041;-64
2023/01/19 10:54:20;;;;;;;4.10;2.47;;;;;;;1.42;98.60;99502.25;5034075;28;20103;-64
2023/01/19 10:56:57;;;;;;;3.72;2.22;;;;;;;1.38;96.60;99496.44;5033886;28;20094;-64
2023/01/19 10:59:51;;;;;;;3.38;2.40;;;;;;;1.46;95.56;99501.84;5033588;28;20048;-64
2023/01/19 11:02:30;;;;;;;3.05;2.42;;;;;;;1.43;94.97;99502.09;5033861;28;20095;-64
2023/01/19 11:04:56;;;;;;;3.03;1.95;;;;;;;1.47;94.78;99506.13;5033904;28;20120;-65
2023/01/19 11:07:24;;;;;;;3.55;2.15;;;;;;;1.46;94.17;99501.03;5033474;28;20175;-65
2023/01/19 11:10:10;;;;;;;2.10;1.52;;;;;;;1.53;94.36;99512.66;5033882;28;20029;-64
2023/01/19 11:12:40;;;;;;;3.17;2.05;;;;;;;1.55;92.98;99511.53;5033626;28;20037;-64
2023/01/19 11:15:21;;;;;;;4.00;2.83;;;;;;;1.51;93.24;99510.16;5032546;28;20048;-64
2023/01/19 11:17:48;;;;;;;4.07;2.53;;;;;;;1.52;92.71;99514.44;5032219;28;20096;-64
2023/01/19 11:20:23;;;;;;;3.03;2.08;;;;;;;1.58;93.56;99515.72;5033467;28;20119;-65
2023/01/19 11:23:22;;;;;;;4.32;2.47;;;;;;;1.52;92.72;99511.81;5033542;28;20129;-64
2023/01/19 11:25:50;;;;;;;3.70;2.88;;;;;;;1.59;92.88;99509.50;5019551;28;20041;-64
2023/01/19 11:28:27;;;;;;;3.38;2.13;;;;;;;1.62;92.15;99517.09;5033289;28;20099;-64
2023/01/19 11:30:57;;;;;;;3.13;2.33;;;;;;;1.59;91.65;99509.50;5033352;28;20474;-63
2023/01/19 11:33:24;;;;;;;2.60;1.98;;;;;;;1.60;90.76;99505.91;5034241;28;20506;-65
2023/01/19 11:35:50;;;;;;;1.70;1.60;;;;;;;1.59;90.79;99505.06;5033975;28;20044;-65
2023/01/19 11:38:18;;;;;;;3.63;2.50;;;;;;;1.66;91.62;99501.91;5032937;28;20042;-64
2023/01/19 11:40:53;;;;;;;4.38;1.65;;;;;;;1.65;90.29;99489.75;5033286;28;20048;-65
2023/01/19 11:43:20;;;;;;;3.30;2.13;;;;;;;1.71;90.35;99495.31;5033368;28;20042;-64
2023/01/19 11:45:46;;;;;;;5.18;2.70;;;;;;;1.80;91.59;99489.22;5033642;28;20053;-63
2023/01/19 11:48:21;;;;;;;6.00;2.42;;;;;;;1.83;91.35;99488.16;5033352;28;20498;-64
2023/01/19 11:50:48;;;;;;;4.35;1.98;;;;;;;1.90;90.33;99490.09;5033675;28;20069;-65
2023/01/19 11:53:20;;;;;;;4.70;2.75;;;;;;;1.93;91.07;99480.25;5033524;28;20429;-65
2023/01/19 11:55:52;;;;;;;2.60;2.03;;;;;;;1.87;90.07;99485.09;5033073;28;20037;-63
2023/01/19 11:58:19;;;;;;;2.70;2.20;;;;;;;1.93;89.72;99481.09;5032903;28;20235;-64
2023/01/19 12:00:59;;;;;;;4.07;2.40;;;;;;;1.90;89.22;99486.63;5033114;28;20025;-64
2023/01/19 12:03:51;;;;;;;3.08;2.13;;;;;;;1.99;91.45;99487.59;5033609;28;20474;-64
2023/01/19 12:06:25;;;;;;;3.28;2.22;;;;;;;2.06;89.54;99484.28;5022600;28;20138;-65
2023/01/19 12:09:23;;;;;;;3.10;2.50;;;;;;;2.03;88.79;99489.81;5032552;28;20094;-65
2023/01/19 12:12:03;;;;;;;3.35;3.05;;;;;;;2.02;88.89;99484.69;5027942;28;20049;-65
2023/01/19 12:14:42;;;;;;;4.95;2.80;;;;;;;2.07;89.50;99491.19;5032448;28;20449;-65
2023/01/19 12:17:15;;;;;;;3.78;3.30;;;;;;;2.06;90.10;99488.72;5032481;28;20040;-65
2023/01/19 12:19:49;;;;;;;2.25;1.70;;;;;;;2.00;90.41;99489.25;5033180;28;20402;-65
2023/01/19 12:22:16;;;;;;;5.75;2.63;;;;;;;2.07;90.01;99490.38;5032855;28;20022;-65
2023/01/19 12:24:56;;;;;;;2.78;1.75;;;;;;;2.10;88.68;99493.56;5032724;28;20060;-65
2023/01/19 12:27:42;;;;;;;3.90;2.35;;;;;;;2.15;89.21;99498.38;5032272;28;20038;-66
2023/01/19 12:30:35;;;;;;;4.75;2.67;;;;;;;2.14;90.19;99491.47;5033143;28;20512;-65
2023/01/19 12:33:29;;;;;;;4.40;2.88;;;;;;;2.18;90.11;99488.44;5029345;28;20053;-64
2023/01/19 12:36:01;;;;;;;5.60;2.88;;;;;;;2.20;89.69;99485.66;5032554;28;20041;-65
2023/01/19 12:38:45;;;;;;;3.78;2.53;;;;;;;2.17;89.19;99478.06;5032739;28;20059;-64
2023/01/19 12:41:25;;;;;;;4.32;2.67;;;;;;;2.22;90.14;99477.63;5032649;28;20041;-66
2023/01/19 12:44:08;;;;;;;7.00;2.92;;;;;;;2.20;90.22;99479.59;5032893;28;20033;-66
2023/01/19 12:46:35;;;;;;;3.08;2.40;;;;;;;2.22;90.29;99485.53;5032805;28;20033;-64
2023/01/19 12:49:20;;;;;;;5.03;2.35;;;;;;;2.22;89.80;99485.53;5032140;28;20116;-64
2023/01/19 12:51:47;;;;;;;4.07;1.95;;;;;;;2.22;90.17;99485.53;5033465;28;20116;-66
2023/01/19 12:54:30;;;;;;;3.13;2.17;;;;;;;2.22;90.56;99489.00;5032253;28;20045;-66
2023/01/19 12:57:02;;;;;;;2.65;1.85;;;;;;;2.24;91.98;99491.50;5031616;28;20033;-65
2023/01/19 12:59:30;;;;;;;4.97;2.97;;;;;;;2.24;90.00;99492.31;5031801;28;20132;-65
2023/01/19 13:02:17;;;;;;;3.55;2.22;;;;;;;2.24;90.01;99484.44;5031700;28;20469;-65
2023/01/19 13:05:05;;;;;;;2.85;1.63;;;;;;;2.24;89.53;99486.22;5031626;28;20047;-66
2023/01/19 13:08:06;;;;;;;4.30;2.33;;;;;;;2.10;89.94;99490.09;5031418;28;20494;-65
2023/01/19 13:11:08;;;;;;;4.28;2.88;;;;;;;2.10;90.45;99488.31;5030450;28;20038;-65
2023/01/19 13:13:42;;;;;;;4.97;2.25;;;;;;;2.13;90.73;99484.56;5031942;28;20041;-65
2023/01/19 13:16:17;;;;;;;3.17;2.72;;;;;;;2.13;90.65;99488.00;5031979;28;20052;-65
2023/01/19 13:18:47;;;;;;;3.70;2.53;;;;;;;2.05;90.16;99473.91;5031486;28;20049;-65
2023/01/19 13:21:25;;;;;;;3.63;2.22;;;;;;;2.12;89.62;99469.78;5031760;28;20037;-65
2023/01/19 13:23:52;;;;;;;;;;;;;;;2.14;89.36;99470.44;5032064;28;20041;-65
2023/01/19 13:26:22;;;;;;;2.13;1.80;;;;;;;2.06;90.53;99478.19;5031770;28;19952;-65
2023/01/19 13:28:54;;;;;;;2.83;2.22;;;;;;;2.06;89.75;99484.28;5031923;28;20034;-65
2023/01/19 13:31:21;;;;;;;3.88;2.38;;;;;;;2.07;89.78;99474.59;5031834;28;20033;-65
2023/01/19 13:33:54;;;;;;;4.77;2.43;;;;;;;2.12;89.00;99477.66;5031641;28;20033;-65
2023/01/19 13:36:29;;;;;;;2.58;2.03;;;;;;;2.10;89.55;99475.16;5032173;28;20041;-65
2023/01/19 13:38:58;;;;;;;3.15;2.03;;;;;;;2.14;89.94;99479.16;5031513;28;20079;-65
2023/01/19 13:41:28;;;;;;;2.58;1.65;;;;;;;2.25;89.92;99467.69;5031306;28;20124;-65
2023/01/19 13:44:00;;;;;;;3.50;2.13;;;;;;;2.31;89.91;99466.31;5032196;28;20057;-65
2023/01/19 13:46:27;;;;;;;2.72;1.83;;;;;;;2.54;87.91;99461.56;5034855;28;20380;-65
2023/01/19 13:49:00;;;;;;;4.03;2.75;;;;;;;2.77;86.17;99455.03;5033902;28;20025;-65
2023/01/19 13:51:25;;;;;;;4.55;2.38;;;;;;;3.02;86.59;99465.91;5035572;28;20403;-65
2023/01/19 13:54:02;;;;;;;4.53;2.50;;;;;;;3.15;84.09;99458.50;5035044;28;20037;-65
2023/01/19 13:56:30;;;;;;;4.70;2.70;;;;;;;3.44;84.14;99464.44;5033724;28;20034;-65
2023/01/19 13:59:12;;;;;;;3.42;1.92;;;;;;;3.53;80.41;99468.03;5035746;28;20037;-65
2023/01/19 14:01:40;;;;;;;4.05;2.03;;;;;;;3.40;77.67;99465.75;5032784;28;20068;-65
2023/01/19 14:04:23;;;;;;;2.08;1.73;;;;;;;3.54;78.27;99474.94;5032563;28;20072;-65
2023/01/19 14:06:53;;;;;;;3.33;1.83;;;;;;;3.48;77.33;99475.53;5033700;28;20120;-65
2023/01/19 14:09:18;;;;;;;2.58;2.10;;;;;;;3.49;76.61;99475.38;5034902;28;20395;-65
2023/01/19 14:11:47;;;;;;;4.32;2.47;;;;;;;3.56;75.82;99478.25;5034417;28;20041;-64
2023/01/19 14:14:26;;;;;;;3.20;2.15;;;;;;;3.72;77.02;99465.28;5035012;28;20029;-65
2023/01/19 14:16:52;;;;;;;3.53;2.50;;;;;;;3.83;77.96;99469.50;5035275;28;20467;-65
2023/01/19 14:19:18;;;;;;;3.70;2.00;;;;;;;3.84;78.75;99467.69;5035130;28;20509;-65
2023/01/19 14:21:44;;;;;;;5.53;2.47;;;;;;;3.72;77.52;99465.28;5035294;28;20112;-65
2023/01/19 14:24:17;;;;;;;3.65;2.47;;;;;;;3.57;76.92;99472.00;5034764;28;20042;-64
2023/01/19 14:26:47;;;;;;;3.58;2.15;;;;;;;3.51;76.12;99470.78;5034796;28;20029;-65
2023/01/19 14:29:32;;;;;;;2.92;2.30;;;;;;;3.46;77.12;99465.16;5034499;28;20044;-65
2023/01/19 14:32:06;;;;;;;3.63;2.22;;;;;;;3.45;76.73;99468.75;5035067;28;20107;-65
2023/01/19 14:34:42;;;;;;;3.28;2.05;;;;;;;3.45;75.97;99468.75;5034703;28;20095;-65
2023/01/19 14:37:33;;;;;;;3.33;2.20;;;;;;;3.44;76.88;99477.63;5034874;28;20114;-65
2023/01/19 14:40:17;;;;;;;1.90;1.65;;;;;;;3.38;76.78;99469.47;5034671;28;20116;-66
2023/01/19 14:43:04;;;;;;;4.85;2.17;;;;;;;3.47;77.31;99471.25;5034597;28;20519;-65
2023/01/19 14:45:33;;;;;;;;;;;;;;;3.49;78.55;99470.13;5035430;28;20100;-66
2023/01/19 14:48:02;;;;;;;4.30;2.03;;;;;;;3.46;77.23;99472.22;5033138;28;19913;-66
2023/01/19 14:50:34;;;;;;;4.28;2.47;;;;;;;3.45;79.70;99476.63;5034621;28;20037;-66
2023/01/19 14:53:04;;;;;;;4.93;2.70;;;;;;;3.36;77.67;99479.34;5032678;28;20478;-66
2023/01/19 14:55:48;;;;;;;2.97;2.65;;;;;;;3.25;78.65;99486.44;5034380;28;20044;-66
2023/01/19 14:58:15;;;;;;;2.83;2.05;;;;;;;3.12;79.59;99488.56;5034458;28;20120;-66
2023/01/19 15:00:42;;;;;;;4.47;2.47;;;;;;;3.03;79.93;99493.88;5034183;28;20116;-66
2023/01/19 15:03:08;;;;;;;4.03;2.58;;;;;;;2.93;78.97;99489.47;5033764;28;20033;-65
2023/01/19 15:05:38;;;;;;;2.58;1.75;;;;;;;2.79;80.33;99494.31;5034241;28;20041;-64
2023/01/19 15:08:04;;;;;;;3.70;2.05;;;;;;;2.71;81.10;99500.31;5033893;28;20049;-65
2023/01/19 15:10:30;;;;;;;3.38;2.80;;;;;;;2.70;81.97;99501.28;5034074;28;20041;-66
2023/01/19 15:12:56;;;;;;;2.60;2.10;;;;;;;2.74;82.76;99507.94;5034349;28;20039;-66
2023/01/19 15:15:30;;;;;;;4.72;2.50;;;;;;;2.61;83.45;99505.59;5034122;28;20040;-65
2023/01/19 15:17:57;;;;;;;3.97;2.65;;;;;;;2.54;84.13;99506.25;5033978;28;20115;-65
2023/01/19 15:20:23;;;;;;;3.73;2.57;;;;;;;2.51;84.73;99502.13;5034155;28;20037;-65
2023/01/19 15:22:48;;;;;;;2.83;2.10;;;;;;;2.52;84.18;99505.59;5034549;28;20036;-65
2023/01/19 15:25:25;;;;;;;3.13;2.50;;;;;;;2.45;85.72;99506.13;5034076;28;20624;-65
2023/01/19 15:27:51;;;;;;;3.70;2.60;;;;;;;2.39;85.56;99505.88;5033753;28;20111;-65
2023/01/19 15:30:23;;;;;;;3.75;2.80;;;;;;;2.27;86.08;99499.09;5034139;28;20304;-65
2023/01/19 15:32:49;;;;;;;3.47;2.33;;;;;;;2.15;86.95;99507.13;5033677;28;20029;-65
2023/01/19 15:35:15;;;;;;;5.88;3.03;;;;;;;2.14;87.47;99497.56;5034474;28;20043;-65
2023/01/19 15:37:41;;;;;;;2.70;2.40;;;;;;;2.11;87.46;99502.28;5034299;28;20033;-65
2023/01/19 15:40:07;;;;;;;3.45;2.80;;;;;;;1.99;88.51;99487.59;5034686;28;20043;-65
2023/01/19 15:42:32;;;;;;;5.43;3.28;;;;;;;2.01;88.85;99501.41;5033943;28;20363;-65
2023/01/19 15:44:58;;;;;;;6.55;3.40;;;;;;;1.92;89.33;99497.81;5035247;28;20049;-65
2023/01/19 15:47:23;;;;;;;4.88;2.55;;;;;;;1.88;90.12;99492.00;5033785;28;20063;-65
2023/01/19 15:49:49;;;;;;;2.85;2.55;;;;;;;1.83;90.23;99502.09;5032512;28;20041;-65
2023/01/19 15:52:14;;;;;;;6.22;2.60;;;;;;;1.76;90.11;99508.88;5033851;28;20046;-65
2023/01/19 15:54:39;;;;;;;5.03;3.13;;;;;;;1.70;90.37;99503.31;5033936;28;20510;-65
2023/01/19 15:57:05;;;;;;;5.00;2.97;;;;;;;1.72;90.88;99504.00;5033132;28;20034;-65
2023/01/19 15:59:30;;;;;;;4.07;2.38;;;;;;;1.63;91.13;99508.28;5032790;28;20046;-65
2023/01/19 16:01:56;;;;;;;3.65;3.03;;;;;;;1.59;91.25;99501.63;5032788;28;20030;-64
2023/01/19 16:04:21;;;;;;;4.60;2.95;;;;;;;1.55;90.92;99503.69;5033174;28;20509;-65
2023/01/19 16:06:48;;;;;;;4.55;2.65;;;;;;;1.43;91.92;99493.41;5031974;28;20596;-65
2023/01/19 16:09:17;;;;;;;4.35;3.03;;;;;;;1.42;92.33;99497.81;5032635;28;20033;-65
2023/01/19 16:11:43;;;;;;;3.75;2.70;;;;;;;1.38;92.76;99493.81;5033336;28;20037;-65
2023/01/19 16:14:08;;;;;;;4.95;3.13;;;;;;;1.40;92.73;99496.31;5033140;28;20124;-65
2023/01/19 16:16:34;;;;;;;3.90;2.72;;;;;;;1.32;93.29;99494.34;5033094;28;20037;-65
2023/01/19 16:18:59;;;;;;;4.25;2.90;;;;;;;1.30;93.59;99507.63;5032793;28;20033;-65
2023/01/19 16:21:25;;;;;;;5.38;3.40;;;;;;;1.26;94.01;99503.59;5031457;28;20095;-64
2023/01/19 16:23:50;;;;;;;6.00;3.08;;;;;;;1.23;94.29;99503.00;5032853;28;20042;-65
2023/01/19 16:26:28;;;;;;;6.00;3.20;;;;;;;1.17;94.75;99506.97;5033009;28;20041;-65
2023/01/19 16:28:58;;;;;;;4.18;2.65;;;;;;;1.12;94.47;99501.31;5032791;28;20038;-64
2023/01/19 16:31:24;;;;;;;6.43;2.78;;;;;;;1.10;94.48;99500.59;5033363;28;20041;-64
2023/01/19 16:33:50;;;;;;;4.15;3.00;;;;;;;1.10;94.47;99503.22;5031838;28;20702;-64
2023/01/19 16:36:19;;;;;;;7.57;2.53;;;;;;;1.08;94.58;99492.03;5032605;28;20045;-66
2023/01/19 16:38:45;;;;;;;4.90;2.58;;;;;;;1.03;95.62;99494.22;5032901;28;20045;-65
2023/01/19 16:41:10;;;;;;;5.70;2.65;;;;;;;0.96;95.33;99491.28;5033383;28;20065;-65
2023/01/19 16:43:36;;;;;;;3.95;2.40;;;;;;;0.94;94.76;99498.47;5033286;28;20037;-65
2023/01/19 16:46:03;;;;;;;5.88;2.95;;;;;;;0.96;95.14;99501.78;5033629;28;20041;-65
2023/01/19 16:48:29;;;;;;;5.03;2.70;;;;;;;0.91;95.62;99500.50;5032684;28;20037;-65
2023/01/19 16:51:04;;;;;;;4.63;2.95;;;;;;;0.93;95.57;99493.34;5032783;28;20048;-65
2023/01/19 16:53:33;;;;;;;3.85;2.72;;;;;;;0.91;95.86;99490.84;5032861;28;20438;-65
2023/01/19 16:55:58;;;;;;;4.40;3.13;;;;;;;0.87;95.82;99489.44;5031163;28;20034;-64
2023/01/19 16:58:24;;;;;;;6.05;3.20;;;;;;;0.85;95.90;99491.38;5032461;28;20033;-65
2023/01/19 17:00:49;;;;;;;7.35;2.22;;;;;;;0.86;95.89;99492.22;5032383;28;20038;-65
2023/01/19 17:03:14;;;;;;;4.90;2.78;;;;;;;0.87;96.77;99493.88;5031975;28;20041;-65
2023/01/19 17:05:40;;;;;;;4.07;2.45;;;;;;;0.81;96.37;99496.03;5031932;28;20041;-65
2023/01/19 17:08:05;;;;;;;5.28;2.60;;;;;;;0.81;96.33;99495.22;5031229;28;20057;-65
2023/01/19 17:10:34;;;;;;;3.85;2.90;;;;;;;0.68;96.60;99479.69;5031824;28;20540;-65
2023/01/19 17:13:00;;;;;;;4.53;2.80;;;;;;;0.69;97.08;99497.06;5031900;28;20041;-65
2023/01/19 17:15:25;;;;;;;5.63;3.55;;;;;;;0.70;97.29;99497.91;5032040;28;20049;-65
2023/01/19 17:17:51;;;;;;;3.63;2.65;;;;;;;0.67;97.25;99493.75;5031679;28;20037;-65
2023/01/19 17:20:16;;;;;;;5.70;3.78;;;;;;;0.60;97.56;99491.78;5032213;28;20410;-64